createdAt,value
2016-12-17T00:00:16.062Z,0
2016-12-17T00:01:50.869Z,0
2016-12-17T00:03:25.248Z,0
2016-12-17T00:04:55.334Z,0
2016-12-17T00:06:29.434Z,0
2016-12-17T00:10:04.836Z,0
2016-12-17T00:11:40.052Z,0
2016-12-17T00:13:14.208Z,0
2016-12-17T00:14:47.690Z,0
2016-12-17T00:16:21.540Z,0
2016-12-17T00:17:55.390Z,0
2016-12-17T00:19:29.143Z,0
2016-12-17T00:21:30.076Z,0
2016-12-17T00:23:04.476Z,0
2016-12-17T00:24:39.845Z,0
2016-12-17T00:26:13.788Z,0
2016-12-17T00:27:47.880Z,0
2016-12-17T00:29:21.760Z,0
2016-12-17T00:30:55.279Z,0
2016-12-17T00:32:29.044Z,0
2016-12-17T00:34:22.668Z,0
2016-12-17T00:35:37.192Z,0
2016-12-17T00:37:31.152Z,0
2016-12-17T00:39:05.045Z,0
2016-12-17T00:40:35.374Z,0
2016-12-17T00:42:40.598Z,0
2016-12-17T00:44:14.599Z,0
2016-12-17T00:45:48.937Z,0
2016-12-17T00:47:22.322Z,0
2016-12-17T00:48:51.026Z,0
2016-12-17T00:50:24.988Z,0
2016-12-17T00:51:59.924Z,0
2016-12-17T00:53:33.351Z,0
2016-12-17T00:55:07.072Z,0
2016-12-17T00:56:40.958Z,0
2016-12-17T00:58:15.862Z,0
2016-12-17T00:59:49.457Z,0
2016-12-17T01:01:23.210Z,0
2016-12-17T01:02:56.472Z,0
2016-12-17T01:04:30.076Z,0
2016-12-17T01:06:03.644Z,0
2016-12-17T01:07:37.332Z,0
2016-12-17T01:09:10.688Z,0
2016-12-17T01:10:44.446Z,0
2016-12-17T01:12:37.899Z,0
2016-12-17T01:14:07.087Z,0
2016-12-17T01:15:21.636Z,0
2016-12-17T01:16:55.719Z,0
2016-12-17T01:18:29.163Z,0
2016-12-17T01:20:22.088Z,0
2016-12-17T01:21:55.948Z,0
2016-12-17T01:23:29.592Z,0
2016-12-17T01:25:03.260Z,0
2016-12-17T01:26:36.676Z,0
2016-12-17T01:28:09.961Z,0
2016-12-17T01:30:23.055Z,0
2016-12-17T01:31:56.839Z,0
2016-12-17T01:33:30.312Z,0
2016-12-17T01:35:23.399Z,0
2016-12-17T01:36:57.220Z,0
2016-12-17T01:38:30.687Z,0
2016-12-17T01:40:04.498Z,0
2016-12-17T01:41:38.092Z,0
2016-12-17T01:43:11.882Z,0
2016-12-17T01:44:45.953Z,0
2016-12-17T01:46:19.532Z,0
2016-12-17T01:47:52.949Z,0
2016-12-17T01:49:28.072Z,0
2016-12-17T01:51:01.668Z,0
2016-12-17T01:52:35.815Z,0
2016-12-17T01:54:29.964Z,0
2016-12-17T01:56:03.756Z,0
2016-12-17T01:57:37.238Z,0
2016-12-17T01:59:10.986Z,0
2016-12-17T02:00:44.410Z,0
2016-12-17T02:02:19.476Z,0
2016-12-17T02:03:53.193Z,0
2016-12-17T02:05:27.108Z,0
2016-12-17T02:07:00.814Z,0
2016-12-17T02:08:35.118Z,0
2016-12-17T02:10:08.452Z,0
2016-12-17T02:11:42.066Z,0
2016-12-17T02:13:15.421Z,0
2016-12-17T02:14:49.066Z,0
2016-12-17T02:16:42.014Z,0
2016-12-17T02:18:15.853Z,0
2016-12-17T02:19:49.557Z,0
2016-12-17T02:21:25.840Z,0
2016-12-17T02:22:59.683Z,0
2016-12-17T02:24:32.960Z,0
2016-12-17T02:26:07.045Z,0
2016-12-17T02:27:40.846Z,0
2016-12-17T02:29:14.394Z,0
2016-12-17T02:30:47.873Z,0
2016-12-17T02:32:21.228Z,0
2016-12-17T02:33:54.737Z,0
2016-12-17T02:35:28.778Z,0
2016-12-17T02:37:21.593Z,0
2016-12-17T02:38:55.323Z,0
2016-12-17T02:40:28.839Z,0
2016-12-17T02:42:02.851Z,0
2016-12-17T02:43:36.434Z,0
2016-12-17T02:45:09.693Z,0
2016-12-17T02:46:43.436Z,0
2016-12-17T02:48:17.033Z,0
2016-12-17T02:49:50.686Z,0
2016-12-17T02:51:23.994Z,0
2016-12-17T02:52:57.791Z,0
2016-12-17T02:54:31.890Z,0
2016-12-17T02:56:05.145Z,0
2016-12-17T02:57:38.494Z,0
2016-12-17T02:59:13.099Z,0
2016-12-17T03:00:47.145Z,0
2016-12-17T03:02:40.023Z,0
2016-12-17T03:04:14.174Z,0
2016-12-17T03:05:47.785Z,0
2016-12-17T03:07:21.631Z,0
2016-12-17T03:08:55.248Z,0
2016-12-17T03:10:29.097Z,0
2016-12-17T03:12:02.987Z,0
2016-12-17T03:13:36.336Z,0
2016-12-17T03:15:09.950Z,0
2016-12-17T03:16:43.562Z,0
2016-12-17T03:18:17.071Z,0
2016-12-17T03:19:53.511Z,0
2016-12-17T03:21:26.983Z,0
2016-12-17T03:23:01.523Z,0
2016-12-17T03:24:34.864Z,0
2016-12-17T03:26:08.403Z,0
2016-12-17T03:27:41.779Z,0
2016-12-17T03:29:15.670Z,0
2016-12-17T03:31:08.614Z,0
2016-12-17T03:32:42.550Z,0
2016-12-17T03:34:15.887Z,0
2016-12-17T03:35:49.640Z,0
2016-12-17T03:37:23.199Z,0
2016-12-17T03:38:56.584Z,0
2016-12-17T03:40:30.164Z,0
2016-12-17T03:41:58.604Z,0
2016-12-17T03:43:12.810Z,0
2016-12-17T03:45:05.986Z,0
2016-12-17T03:46:34.902Z,0
2016-12-17T03:47:49.451Z,0
2016-12-17T03:49:22.922Z,0
2016-12-17T03:50:56.851Z,0
2016-12-17T03:52:30.570Z,0
2016-12-17T03:54:23.578Z,0
2016-12-17T03:55:57.490Z,0
2016-12-17T03:57:25.844Z,0
2016-12-17T03:59:02.214Z,0
2016-12-17T04:00:36.771Z,0
2016-12-17T04:02:10.463Z,0
2016-12-17T04:03:43.817Z,0
2016-12-17T04:05:17.420Z,0
2016-12-17T04:06:51.671Z,0
2016-12-17T04:08:25.083Z,0
2016-12-17T04:09:58.783Z,0
2016-12-17T04:11:32.151Z,0
2016-12-17T04:13:06.712Z,0
2016-12-17T04:14:40.078Z,0
2016-12-17T04:16:13.763Z,0
2016-12-17T04:17:47.075Z,0
2016-12-17T04:19:21.077Z,0
2016-12-17T04:21:14.821Z,0
2016-12-17T04:22:48.080Z,0
2016-12-17T04:24:02.233Z,0
2016-12-17T04:25:55.385Z,0
2016-12-17T04:27:29.346Z,0
2016-12-17T04:29:02.971Z,0
2016-12-17T04:30:36.259Z,0
2016-12-17T04:32:09.825Z,0
2016-12-17T04:33:43.351Z,0
2016-12-17T04:35:17.126Z,0
2016-12-17T04:36:50.655Z,0
2016-12-17T04:38:24.155Z,0
2016-12-17T04:39:57.483Z,0
2016-12-17T04:41:31.345Z,0
2016-12-17T04:43:04.984Z,0
2016-12-17T04:44:38.611Z,0
2016-12-17T04:46:12.309Z,0
2016-12-17T04:47:45.914Z,0
2016-12-17T04:49:20.140Z,0
2016-12-17T04:50:54.160Z,0
2016-12-17T04:52:27.921Z,0
2016-12-17T04:54:01.346Z,0
2016-12-17T04:55:34.668Z,0
2016-12-17T04:57:27.766Z,0
2016-12-17T04:59:01.303Z,0
2016-12-17T05:00:34.615Z,0
2016-12-17T05:01:48.718Z,0
2016-12-17T05:03:22.327Z,0
2016-12-17T05:04:56.442Z,0
2016-12-17T05:06:29.697Z,0
2016-12-17T05:08:03.964Z,0
2016-12-17T05:09:37.563Z,0
2016-12-17T05:11:30.452Z,0
2016-12-17T05:13:03.711Z,0
2016-12-17T05:14:37.521Z,0
2016-12-17T05:16:11.760Z,0
2016-12-17T05:17:45.462Z,0
2016-12-17T05:19:18.743Z,0
2016-12-17T05:20:52.224Z,0
2016-12-17T05:22:25.760Z,0
2016-12-17T05:23:59.693Z,0
2016-12-17T05:25:33.420Z,0
2016-12-17T05:27:07.464Z,0
2016-12-17T05:28:41.204Z,0
2016-12-17T05:30:14.748Z,0
2016-12-17T05:31:48.552Z,0
2016-12-17T05:33:21.832Z,0
2016-12-17T05:35:15.400Z,0
2016-12-17T05:36:51.599Z,0
2016-12-17T05:38:25.362Z,0
2016-12-17T05:39:59.049Z,0
2016-12-17T05:41:32.620Z,0
2016-12-17T05:43:06.129Z,0
2016-12-17T05:44:36.684Z,0
2016-12-17T05:46:09.916Z,0
2016-12-17T05:47:43.587Z,0
2016-12-17T05:49:17.852Z,0
2016-12-17T05:50:51.605Z,0
2016-12-17T05:52:25.171Z,0
2016-12-17T05:54:26.882Z,0
2016-12-17T05:56:00.515Z,0
2016-12-17T05:57:35.071Z,0
2016-12-17T05:59:08.351Z,0
2016-12-17T06:00:42.183Z,0
2016-12-17T06:02:15.543Z,0
2016-12-17T06:03:49.134Z,0
2016-12-17T06:05:23.014Z,0
2016-12-17T06:06:56.642Z,0
2016-12-17T06:08:29.951Z,0
2016-12-17T06:10:22.761Z,0
2016-12-17T06:11:56.873Z,0
2016-12-17T06:13:30.638Z,0
2016-12-17T06:15:04.422Z,0
2016-12-17T06:16:37.885Z,0
2016-12-17T06:18:11.133Z,0
2016-12-17T06:19:45.438Z,0
2016-12-17T06:21:19.237Z,0
2016-12-17T06:22:47.466Z,0
2016-12-17T06:24:20.730Z,0
2016-12-17T06:25:54.371Z,0
2016-12-17T06:27:27.953Z,0
2016-12-17T06:29:01.385Z,0
2016-12-17T06:30:34.667Z,0
2016-12-17T06:32:09.083Z,0
2016-12-17T06:33:42.582Z,0
2016-12-17T06:35:15.885Z,0
2016-12-17T06:36:49.622Z,0
2016-12-17T06:38:23.203Z,0
2016-12-17T06:39:56.698Z,0
2016-12-17T06:41:30.296Z,0
2016-12-17T06:43:04.048Z,0
2016-12-17T06:44:38.078Z,0
2016-12-17T06:46:11.325Z,0
2016-12-17T06:48:04.626Z,0
2016-12-17T06:49:38.435Z,0
2016-12-17T06:51:07.506Z,0
2016-12-17T06:52:22.177Z,0
2016-12-17T06:53:55.425Z,4
2016-12-17T06:55:28.766Z,0
2016-12-17T06:57:02.428Z,0
2016-12-17T06:58:55.176Z,4
2016-12-17T07:00:29.314Z,0
2016-12-17T07:02:02.574Z,4
2016-12-17T07:03:36.130Z,4
2016-12-17T07:05:09.759Z,8
2016-12-17T07:06:43.329Z,12
2016-12-17T07:08:16.896Z,8
2016-12-17T07:09:51.650Z,12
2016-12-17T07:11:25.227Z,16
2016-12-17T07:12:58.494Z,16
2016-12-17T07:15:06.566Z,20
2016-12-17T07:17:00.037Z,24
2016-12-17T07:18:33.664Z,32
2016-12-17T07:20:06.924Z,32
2016-12-17T07:21:41.199Z,40
2016-12-17T07:23:14.999Z,44
2016-12-17T07:24:48.545Z,48
2016-12-17T07:26:22.461Z,52
2016-12-17T07:27:56.302Z,56
2016-12-17T07:29:29.584Z,68
2016-12-17T07:31:06.121Z,76
2016-12-17T07:34:38.346Z,108
2016-12-17T07:36:13.413Z,132
2016-12-17T07:37:46.786Z,144
2016-12-17T07:39:22.035Z,148
2016-12-17T07:40:56.886Z,156
2016-12-17T07:42:30.246Z,164
2016-12-17T07:44:04.231Z,172
2016-12-17T07:45:37.524Z,172
2016-12-17T07:47:12.095Z,176
2016-12-17T07:49:07.591Z,180
2016-12-17T07:50:43.618Z,188
2016-12-17T07:52:19.151Z,200
2016-12-17T07:53:54.480Z,208
2016-12-17T07:55:55.767Z,224
2016-12-17T07:57:29.290Z,240
2016-12-17T07:59:02.797Z,240
2016-12-17T08:00:32.910Z,240
2016-12-17T08:02:06.546Z,240
2016-12-17T08:03:41.024Z,240
2016-12-17T08:05:15.377Z,252
2016-12-17T08:06:48.988Z,264
2016-12-17T08:08:22.415Z,284
2016-12-17T08:09:56.001Z,316
2016-12-17T08:11:49.758Z,320
2016-12-17T08:13:23.708Z,336
2016-12-17T08:14:57.090Z,384
2016-12-17T08:16:30.579Z,436
2016-12-17T08:18:04.116Z,400
2016-12-17T08:19:37.615Z,380
2016-12-17T08:21:11.314Z,388
2016-12-17T08:22:45.111Z,412
2016-12-17T08:24:13.561Z,440
2016-12-17T08:25:41.884Z,460
2016-12-17T08:26:55.971Z,492
2016-12-17T08:28:30.059Z,496
2016-12-17T08:30:03.628Z,532
2016-12-17T08:31:37.076Z,532
2016-12-17T08:33:29.652Z,532
2016-12-17T08:35:04.088Z,564
2016-12-17T08:36:37.731Z,624
2016-12-17T08:38:11.413Z,704
2016-12-17T08:39:44.657Z,772
2016-12-17T08:41:18.538Z,864
2016-12-17T08:42:51.817Z,956
2016-12-17T08:44:25.677Z,988
2016-12-17T08:45:59.277Z,924
2016-12-17T08:47:32.758Z,836
2016-12-17T08:49:06.006Z,744
2016-12-17T08:50:40.922Z,732
2016-12-17T08:52:14.185Z,756
2016-12-17T08:53:45.574Z,772
2016-12-17T08:55:18.938Z,788
2016-12-17T08:57:20.413Z,792
2016-12-17T08:58:54.153Z,780
2016-12-17T09:00:27.867Z,768
2016-12-17T09:02:01.417Z,772
2016-12-17T09:03:34.981Z,740
2016-12-17T09:05:08.619Z,716
2016-12-17T09:06:42.486Z,752
2016-12-17T09:08:16.371Z,760
2016-12-17T09:10:09.790Z,760
2016-12-17T09:11:43.449Z,788
2016-12-17T09:13:12.753Z,800
2016-12-17T09:14:27.085Z,820
2016-12-17T09:16:00.994Z,852
2016-12-17T09:17:34.534Z,876
2016-12-17T09:19:28.020Z,892
2016-12-17T09:21:02.045Z,868
2016-12-17T09:22:36.356Z,880
2016-12-17T09:24:10.028Z,888
2016-12-17T09:25:43.983Z,864
2016-12-17T09:27:17.901Z,848
2016-12-17T09:28:51.455Z,832
2016-12-17T09:30:25.249Z,832
2016-12-17T09:32:00.166Z,848
2016-12-17T09:33:34.073Z,880
2016-12-17T09:35:08.229Z,884
2016-12-17T09:37:01.036Z,884
2016-12-17T09:38:35.422Z,896
2016-12-17T09:47:04.346Z,1064
2016-12-17T09:48:20.043Z,1068
2016-12-17T09:49:34.316Z,1080
2016-12-17T09:50:49.592Z,1084
2016-12-17T09:52:04.731Z,1068
2016-12-17T09:53:21.767Z,1056
2016-12-17T09:54:37.999Z,1064
2016-12-17T09:55:53.069Z,1060
2016-12-17T09:57:07.977Z,1072
2016-12-17T09:58:22.364Z,1088
2016-12-17T09:59:37.017Z,1092
2016-12-17T10:00:53.316Z,1100
2016-12-17T10:02:07.759Z,1112
2016-12-17T10:03:22.585Z,1120
2016-12-17T10:04:37.457Z,1140
2016-12-17T10:05:53.001Z,1200
2016-12-17T10:07:07.942Z,1208
2016-12-17T10:08:22.190Z,1184
2016-12-17T10:09:36.466Z,1164
2016-12-17T10:10:50.919Z,1172
2016-12-17T10:12:05.506Z,1144
2016-12-17T10:13:19.776Z,1108
2016-12-17T10:14:34.794Z,1100
2016-12-17T10:15:48.919Z,1072
2016-12-17T10:17:03.532Z,1056
2016-12-17T10:18:18.288Z,1052
2016-12-17T10:19:33.785Z,1044
2016-12-17T10:20:48.474Z,1028
2016-12-17T10:22:02.929Z,1000
2016-12-17T10:23:17.188Z,968
2016-12-17T10:24:32.089Z,956
2016-12-17T10:25:48.244Z,952
2016-12-17T10:27:06.953Z,984
2016-12-17T10:28:21.325Z,992
2016-12-17T10:29:35.904Z,976
2016-12-17T10:30:50.850Z,964
2016-12-17T10:32:05.762Z,952
2016-12-17T10:33:22.599Z,968
2016-12-17T10:34:37.544Z,980
2016-12-17T10:35:51.936Z,1004
2016-12-17T10:37:06.937Z,996
2016-12-17T10:38:21.618Z,1016
2016-12-17T10:39:35.952Z,1032
2016-12-17T10:40:50.217Z,1016
2016-12-17T10:42:04.903Z,992
2016-12-17T10:43:20.334Z,984
2016-12-17T10:44:35.458Z,972
2016-12-17T10:45:50.739Z,980
2016-12-17T10:47:05.883Z,972
2016-12-17T10:48:20.374Z,988
2016-12-17T10:49:35.252Z,1000
2016-12-17T10:50:50.525Z,1020
2016-12-17T10:52:06.601Z,1020
2016-12-17T10:53:21.043Z,1044
2016-12-17T10:54:36.994Z,1048
2016-12-17T10:55:52.067Z,1052
2016-12-17T10:57:07.223Z,1088
2016-12-17T10:58:22.264Z,1112
2016-12-17T10:59:36.916Z,1168
2016-12-17T11:00:52.890Z,1224
2016-12-17T11:02:07.746Z,1276
2016-12-17T11:03:22.548Z,1288
2016-12-17T11:04:36.840Z,1324
2016-12-17T11:05:51.265Z,1392
2016-12-17T11:07:06.170Z,1508
2016-12-17T11:08:21.024Z,1636
2016-12-17T11:09:35.864Z,1740
2016-12-17T11:10:50.340Z,1824
2016-12-17T11:12:04.816Z,1832
2016-12-17T11:13:18.994Z,1824
2016-12-17T11:14:33.497Z,1804
2016-12-17T11:15:48.022Z,1784
2016-12-17T11:17:02.624Z,1780
2016-12-17T11:18:16.749Z,1772
2016-12-17T11:19:31.452Z,1784
2016-12-17T11:21:01.006Z,1808
2016-12-17T11:22:15.070Z,1844
2016-12-17T11:23:29.184Z,1888
2016-12-17T11:24:43.266Z,1924
2016-12-17T11:25:57.492Z,1980
2016-12-17T11:27:12.500Z,1996
2016-12-17T11:28:26.539Z,1976
2016-12-17T11:29:41.296Z,2012
2016-12-17T11:30:55.375Z,2032
2016-12-17T11:32:10.016Z,1996
2016-12-17T11:33:24.337Z,1928
2016-12-17T11:34:38.487Z,1900
2016-12-17T11:35:52.815Z,1916
2016-12-17T11:37:07.699Z,1932
2016-12-17T11:38:24.137Z,1964
2016-12-17T11:39:38.831Z,2000
2016-12-17T11:40:53.253Z,2028
2016-12-17T11:42:08.047Z,2028
2016-12-17T11:43:22.514Z,1928
2016-12-17T11:44:39.997Z,1836
2016-12-17T11:45:55.333Z,1812
2016-12-17T11:47:26.440Z,1860
2016-12-17T11:48:41.013Z,1856
2016-12-17T11:49:55.467Z,1848
2016-12-17T11:51:10.128Z,1832
2016-12-17T11:52:24.264Z,1748
2016-12-17T11:53:38.510Z,1684
2016-12-17T11:54:52.996Z,1628
2016-12-17T11:56:07.430Z,1584
2016-12-17T11:57:21.854Z,1528
2016-12-17T11:58:36.120Z,1480
2016-12-17T11:59:50.285Z,1440
2016-12-17T12:01:04.516Z,1404
2016-12-17T12:02:18.976Z,1428
2016-12-17T12:03:33.494Z,1484
2016-12-17T12:04:48.045Z,1556
2016-12-17T12:06:02.893Z,1624
2016-12-17T12:07:17.011Z,1632
2016-12-17T12:08:31.326Z,1640
2016-12-17T12:09:45.710Z,1628
2016-12-17T12:11:00.317Z,1736
2016-12-17T12:12:14.442Z,1736
2016-12-17T12:13:29.485Z,1716
2016-12-17T12:14:43.591Z,1640
2016-12-17T12:15:57.907Z,1560
2016-12-17T12:17:12.795Z,1488
2016-12-17T12:18:26.971Z,1420
2016-12-17T12:19:41.141Z,1348
2016-12-17T12:20:55.487Z,1308
2016-12-17T12:22:09.877Z,1264
2016-12-17T12:23:23.977Z,1236
2016-12-17T12:24:38.424Z,1260
2016-12-17T12:25:52.663Z,1328
2016-12-17T12:27:07.287Z,1360
2016-12-17T12:28:21.530Z,1328
2016-12-17T12:29:35.947Z,1304
2016-12-17T12:30:50.767Z,1264
2016-12-17T12:32:04.873Z,1108
2016-12-17T12:33:19.208Z,1000
2016-12-17T12:34:33.720Z,956
2016-12-17T12:35:48.187Z,932
2016-12-17T12:37:02.287Z,900
2016-12-17T12:38:16.636Z,880
2016-12-17T12:39:30.870Z,840
2016-12-17T12:40:45.516Z,816
2016-12-17T12:42:01.028Z,816
2016-12-17T12:43:15.739Z,852
2016-12-17T12:44:29.786Z,928
2016-12-17T12:45:43.872Z,1024
2016-12-17T12:47:13.205Z,1164
2016-12-17T12:48:27.642Z,1292
2016-12-17T12:49:42.009Z,1392
2016-12-17T12:50:56.136Z,1440
2016-12-17T12:52:10.619Z,1476
2016-12-17T12:53:25.009Z,1456
2016-12-17T12:54:39.144Z,1424
2016-12-17T12:55:53.826Z,1396
2016-12-17T12:57:08.928Z,1368
2016-12-17T12:58:23.626Z,1360
2016-12-17T12:59:39.550Z,1332
2016-12-17T13:00:55.126Z,1284
2016-12-17T13:02:11.552Z,1236
2016-12-17T13:03:25.792Z,1200
2016-12-17T13:04:40.109Z,1144
2016-12-17T13:05:54.717Z,1076
2016-12-17T13:07:09.764Z,1044
2016-12-17T13:08:27.912Z,1000
2016-12-17T13:09:42.116Z,960
2016-12-17T13:10:56.259Z,964
2016-12-17T13:12:10.893Z,968
2016-12-17T13:13:25.555Z,936
2016-12-17T13:14:40.387Z,904
2016-12-17T13:16:09.921Z,840
2016-12-17T13:17:24.273Z,804
2016-12-17T13:18:39.403Z,776
2016-12-17T13:19:54.024Z,728
2016-12-17T13:21:08.768Z,680
2016-12-17T13:22:24.257Z,620
2016-12-17T13:23:39.399Z,580
2016-12-17T13:24:53.718Z,580
2016-12-17T13:26:07.805Z,616
2016-12-17T13:27:36.833Z,660
2016-12-17T13:28:52.013Z,704
2016-12-17T13:30:07.965Z,768
2016-12-17T13:31:22.691Z,836
2016-12-17T13:32:37.224Z,896
2016-12-17T13:34:06.376Z,884
2016-12-17T13:35:21.014Z,876
2016-12-17T13:36:37.196Z,884
2016-12-17T13:37:52.033Z,912
2016-12-17T13:39:07.600Z,940
2016-12-17T13:40:23.190Z,920
2016-12-17T13:41:39.680Z,872
2016-12-17T13:42:54.528Z,844
2016-12-17T13:44:09.027Z,816
2016-12-17T13:45:23.272Z,796
2016-12-17T13:46:38.077Z,752
2016-12-17T13:47:52.286Z,716
2016-12-17T13:49:07.895Z,688
2016-12-17T13:50:22.567Z,688
2016-12-17T13:51:37.307Z,672
2016-12-17T13:52:53.580Z,624
2016-12-17T13:54:08.215Z,540
2016-12-17T13:55:22.408Z,480
2016-12-17T13:56:37.412Z,460
2016-12-17T13:57:53.739Z,440
2016-12-17T13:59:08.720Z,424
2016-12-17T14:00:25.084Z,436
2016-12-17T14:01:39.799Z,460
2016-12-17T14:02:53.959Z,472
2016-12-17T14:04:08.925Z,472
2016-12-17T14:05:23.668Z,480
2016-12-17T14:06:38.544Z,476
2016-12-17T14:07:53.442Z,480
2016-12-17T14:09:09.657Z,488
2016-12-17T14:10:28.524Z,484
2016-12-17T14:11:44.446Z,468
2016-12-17T14:13:02.132Z,456
2016-12-17T14:14:18.458Z,456
2016-12-17T14:15:34.048Z,452
2016-12-17T14:16:49.699Z,444
2016-12-17T14:18:07.473Z,420
2016-12-17T14:19:23.244Z,416
2016-12-17T14:20:41.120Z,432
2016-12-17T14:21:56.906Z,448
2016-12-17T14:23:12.872Z,432
2016-12-17T14:24:28.201Z,404
2016-12-17T14:25:43.406Z,384
2016-12-17T14:26:57.812Z,360
2016-12-17T14:28:12.385Z,336
2016-12-17T14:29:27.737Z,324
2016-12-17T14:30:41.913Z,320
2016-12-17T14:31:56.492Z,304
2016-12-17T14:33:10.566Z,280
2016-12-17T14:34:24.697Z,252
2016-12-17T14:35:39.031Z,232
2016-12-17T14:36:53.620Z,216
2016-12-17T14:38:07.718Z,196
2016-12-17T14:39:21.863Z,180
2016-12-17T14:40:35.953Z,176
2016-12-17T14:41:50.197Z,172
2016-12-17T14:43:04.873Z,164
2016-12-17T14:44:19.665Z,160
2016-12-17T14:45:34.239Z,160
2016-12-17T14:46:48.733Z,164
2016-12-17T14:48:03.333Z,168
2016-12-17T14:49:17.750Z,172
2016-12-17T14:50:32.824Z,172
2016-12-17T14:51:46.954Z,176
2016-12-17T14:53:01.098Z,176
2016-12-17T14:54:15.910Z,172
2016-12-17T14:55:30.408Z,168
2016-12-17T14:56:44.609Z,160
2016-12-17T14:57:59.242Z,148
2016-12-17T14:59:13.447Z,140
2016-12-17T15:00:27.918Z,132
2016-12-17T15:01:42.312Z,128
2016-12-17T15:02:56.674Z,116
2016-12-17T15:04:10.855Z,104
2016-12-17T15:05:25.144Z,104
2016-12-17T15:06:39.419Z,108
2016-12-17T15:07:54.286Z,104
2016-12-17T15:09:08.388Z,104
2016-12-17T15:10:22.800Z,100
2016-12-17T15:11:36.858Z,92
2016-12-17T15:12:51.583Z,84
2016-12-17T15:14:05.932Z,76
2016-12-17T15:15:20.369Z,72
2016-12-17T15:16:34.734Z,68
2016-12-17T15:17:50.375Z,60
2016-12-17T15:19:04.666Z,56
2016-12-17T15:20:18.993Z,48
2016-12-17T15:21:33.512Z,44
2016-12-17T15:22:47.685Z,40
2016-12-17T15:24:02.236Z,36
2016-12-17T15:25:16.335Z,32
2016-12-17T15:26:30.969Z,28
2016-12-17T15:27:45.055Z,28
2016-12-17T15:28:59.611Z,24
2016-12-17T15:30:13.692Z,20
2016-12-17T15:31:28.427Z,16
2016-12-17T15:32:43.504Z,16
2016-12-17T15:33:57.710Z,12
2016-12-17T15:35:11.806Z,12
2016-12-17T15:36:26.265Z,8
2016-12-17T15:37:43.195Z,8
2016-12-17T15:38:57.639Z,8
2016-12-17T15:40:11.684Z,8
2016-12-17T15:41:25.845Z,4
2016-12-17T15:42:40.035Z,4
2016-12-17T15:43:54.709Z,4
2016-12-17T15:45:09.104Z,4
2016-12-17T15:46:23.240Z,0
2016-12-17T15:47:37.378Z,4
2016-12-17T15:49:06.505Z,0
2016-12-17T15:50:20.897Z,4
2016-12-17T15:51:35.099Z,4
2016-12-17T15:52:49.560Z,0
2016-12-17T15:54:03.636Z,0
2016-12-17T15:55:18.113Z,0
2016-12-17T15:56:47.324Z,0
2016-12-17T15:58:01.670Z,0
2016-12-17T15:59:16.482Z,0
2016-12-17T16:00:30.881Z,0
2016-12-17T16:01:45.421Z,0
2016-12-17T16:02:59.758Z,0
2016-12-17T16:04:14.232Z,0
2016-12-17T16:05:28.944Z,0
2016-12-17T16:06:43.680Z,0
2016-12-17T16:07:58.238Z,0
2016-12-17T16:09:13.128Z,0
2016-12-17T16:11:56.131Z,0
2016-12-17T16:13:10.659Z,0
2016-12-17T16:14:25.392Z,0
2016-12-17T16:15:40.132Z,0
2016-12-17T16:16:54.493Z,0
2016-12-17T16:18:08.689Z,0
2016-12-17T16:19:22.945Z,0
2016-12-17T16:20:37.829Z,0
2016-12-17T16:21:53.273Z,0
2016-12-17T16:23:07.951Z,0
2016-12-17T16:24:22.145Z,0
2016-12-17T16:25:45.619Z,0
2016-12-17T16:27:02.275Z,0
2016-12-17T16:28:16.812Z,0
2016-12-17T16:29:30.994Z,0
2016-12-17T16:30:45.665Z,0
2016-12-17T16:31:59.796Z,0
2016-12-17T16:33:43.501Z,0
2016-12-17T16:34:58.299Z,0
2016-12-17T16:36:12.899Z,0
2016-12-17T16:37:27.073Z,0
2016-12-17T16:38:41.515Z,0
2016-12-17T16:39:55.694Z,0
2016-12-17T16:41:10.829Z,0
2016-12-17T16:42:25.241Z,0
2016-12-17T16:43:39.685Z,0
2016-12-17T16:44:53.853Z,0
2016-12-17T16:46:08.350Z,0
2016-12-17T16:47:22.878Z,0
2016-12-17T16:48:37.680Z,0
2016-12-17T16:49:51.749Z,0
2016-12-17T16:51:06.312Z,0
2016-12-17T16:52:21.344Z,0
2016-12-17T16:53:36.257Z,0
2016-12-17T16:54:50.399Z,0
2016-12-17T16:56:07.066Z,0
2016-12-17T16:57:21.232Z,0
2016-12-17T16:58:35.626Z,0
2016-12-17T16:59:50.227Z,0
2016-12-17T17:01:04.725Z,0
2016-12-17T17:02:19.239Z,0
2016-12-17T17:03:33.355Z,0
2016-12-17T17:04:47.884Z,0
2016-12-17T17:06:02.232Z,0
2016-12-17T17:07:16.723Z,0
2016-12-17T17:08:31.109Z,0
2016-12-17T17:09:45.213Z,0
2016-12-17T17:10:59.365Z,0
2016-12-17T17:12:28.966Z,0
2016-12-17T17:13:58.923Z,0
2016-12-17T17:15:13.120Z,0
2016-12-17T17:16:27.256Z,0
2016-12-17T17:17:41.699Z,0
2016-12-17T17:18:55.799Z,0
2016-12-17T17:20:10.192Z,0
2016-12-17T17:21:24.649Z,0
2016-12-17T17:22:38.832Z,0
2016-12-17T17:23:53.780Z,0
2016-12-17T17:25:08.164Z,0
2016-12-17T17:26:22.281Z,0
2016-12-17T17:27:37.164Z,0
2016-12-17T17:28:51.609Z,0
2016-12-17T17:30:06.464Z,0
2016-12-17T17:31:20.611Z,0
2016-12-17T17:32:35.117Z,0
2016-12-17T17:33:49.678Z,0
2016-12-17T17:35:03.875Z,0
2016-12-17T17:36:18.489Z,0
2016-12-17T17:37:33.033Z,0
2016-12-17T17:38:47.907Z,0
2016-12-17T17:40:05.398Z,0
2016-12-17T17:41:25.205Z,0
2016-12-17T17:42:40.294Z,0
2016-12-17T17:43:55.208Z,0
2016-12-17T17:45:09.487Z,0
2016-12-17T17:46:24.744Z,0
2016-12-17T17:47:40.439Z,0
2016-12-17T17:48:58.388Z,0
2016-12-17T17:50:16.711Z,0
2016-12-17T17:51:37.465Z,0
2016-12-17T17:54:45.801Z,0
2016-12-17T17:56:07.487Z,0
2016-12-17T17:57:25.902Z,0
2016-12-17T17:58:43.379Z,0
2016-12-17T18:00:02.055Z,0
2016-12-17T18:01:20.101Z,0
2016-12-17T18:02:37.740Z,0
2016-12-17T18:03:56.833Z,0
2016-12-17T18:05:14.774Z,0
2016-12-17T18:06:32.402Z,0
2016-12-17T18:07:50.269Z,0
2016-12-17T18:09:08.479Z,0
2016-12-17T18:10:25.931Z,0
2016-12-17T18:11:44.383Z,0
2016-12-17T18:13:01.364Z,0
2016-12-17T18:14:18.858Z,0
2016-12-17T18:15:39.819Z,0
2016-12-17T18:16:57.316Z,0
2016-12-17T18:18:15.133Z,0
2016-12-17T18:19:33.695Z,0
2016-12-17T18:20:51.765Z,0
2016-12-17T18:22:07.701Z,0
2016-12-17T18:23:25.296Z,0
2016-12-17T18:24:40.546Z,0
2016-12-17T18:25:57.246Z,0
2016-12-17T18:27:13.945Z,0
2016-12-17T18:28:31.122Z,0
2016-12-17T18:29:46.900Z,0
2016-12-17T18:31:02.829Z,0
2016-12-17T18:32:20.645Z,0
2016-12-17T18:33:36.284Z,0
2016-12-17T18:34:51.058Z,0
2016-12-17T18:36:06.780Z,0
2016-12-17T18:37:22.635Z,0
2016-12-17T18:38:39.239Z,0
2016-12-17T18:40:11.663Z,0
2016-12-17T18:41:26.923Z,0
2016-12-17T18:42:42.961Z,0
2016-12-17T18:43:57.834Z,0
2016-12-17T18:45:12.224Z,0
2016-12-17T18:46:26.782Z,0
2016-12-17T18:47:41.735Z,0
2016-12-17T18:49:11.538Z,0
2016-12-17T18:50:25.916Z,0
2016-12-17T18:51:40.510Z,0
2016-12-17T18:52:54.937Z,0
2016-12-17T18:54:09.584Z,0
2016-12-17T18:55:24.433Z,0
2016-12-17T18:56:38.693Z,0
2016-12-17T18:57:53.308Z,0
2016-12-17T18:59:08.033Z,0
2016-12-17T19:00:23.025Z,0
2016-12-17T19:01:37.658Z,0
2016-12-17T19:02:53.412Z,0
2016-12-17T19:04:09.122Z,0
2016-12-17T19:05:24.235Z,0
2016-12-17T19:06:38.568Z,0
2016-12-17T19:07:52.931Z,0
2016-12-17T19:09:08.357Z,0
2016-12-17T19:10:23.566Z,0
2016-12-17T19:11:38.415Z,0
2016-12-17T19:12:53.053Z,0
2016-12-17T19:14:07.784Z,0
2016-12-17T19:15:22.192Z,0
2016-12-17T19:16:36.887Z,0
2016-12-17T19:17:51.468Z,0
2016-12-17T19:19:06.294Z,0
2016-12-17T19:20:20.700Z,0
2016-12-17T19:21:36.875Z,0
2016-12-17T19:22:51.387Z,0
2016-12-17T19:24:05.698Z,0
2016-12-17T19:25:20.294Z,0
2016-12-17T19:26:34.994Z,0
2016-12-17T19:27:49.625Z,0
2016-12-17T19:29:05.084Z,0
2016-12-17T19:30:20.065Z,0
2016-12-17T19:31:34.905Z,0
2016-12-17T19:32:49.124Z,0
2016-12-17T19:34:05.670Z,0
2016-12-17T19:35:20.392Z,0
2016-12-17T19:36:34.890Z,0
2016-12-17T19:37:49.842Z,0
2016-12-17T19:39:04.379Z,0
2016-12-17T19:40:18.873Z,0
2016-12-17T19:41:33.626Z,0
2016-12-17T19:42:47.913Z,0
2016-12-17T19:44:02.234Z,0
2016-12-17T19:45:16.895Z,0
2016-12-17T19:46:31.893Z,0
2016-12-17T19:47:46.662Z,0
2016-12-17T19:49:01.538Z,0
2016-12-17T19:50:15.892Z,0
2016-12-17T19:51:30.572Z,0
2016-12-17T19:52:45.549Z,0
2016-12-17T19:54:00.103Z,0
2016-12-17T19:55:14.595Z,0
2016-12-17T19:56:29.165Z,0
2016-12-17T19:57:43.812Z,0
2016-12-17T19:58:58.488Z,0
2016-12-17T20:01:56.886Z,0
2016-12-17T20:03:26.315Z,0
2016-12-17T20:04:41.072Z,0
2016-12-17T20:05:55.846Z,0
2016-12-17T20:07:10.300Z,0
2016-12-17T20:08:25.416Z,0
2016-12-17T20:09:40.047Z,0
2016-12-17T20:10:54.863Z,0